Time;durP1;ratioP1;P1;durP2;ratioP2;P2;SDS_P1;SDS_P2;PMS_P1;PMS_P2;Temp;Humidity;BMP_temperature;BMP_pressure;BME280_temperature;BME280_humidity;BME280_pressure;Samples;Min_cycle;Max_cycle;Signal;HPM_P1;HPM_P2
2023/05/25 00:02:05;;;;;;;15.30;11.88;;;18.50;99.90;;;;;;4990975;28;20104;-52
2023/05/25 00:04:33;;;;;;;16.92;11.27;;;18.40;99.90;;;;;;4991109;28;20019;-48
2023/05/25 00:07:02;;;;;;;18.38;11.40;;;18.30;99.90;;;;;;4993183;28;20562;-48
2023/05/25 00:09:28;;;;;;;16.45;10.68;;;18.30;99.90;;;;;;4995284;28;20026;-48
2023/05/25 00:11:54;;;;;;;16.77;11.23;;;18.30;99.90;;;;;;4994959;28;20037;-51
2023/05/25 00:14:20;;;;;;;12.90;11.43;;;18.30;99.90;;;;;;4976994;28;20027;-50
2023/05/25 00:16:47;;;;;;;27.00;13.70;;;18.30;99.90;;;;;;4994856;28;20409;-50
2023/05/25 00:19:14;;;;;;;16.52;11.30;;;18.30;99.90;;;;;;4976753;28;20105;-48
2023/05/25 00:21:44;;;;;;;21.20;12.45;;;18.30;99.90;;;;;;4994556;28;20105;-49
2023/05/25 00:24:10;;;;;;;19.58;11.18;;;18.40;99.90;;;;;;4994055;28;20027;-49
2023/05/25 00:26:36;;;;;;;15.95;11.90;;;18.30;99.90;;;;;;4994441;28;20029;-48
2023/05/25 00:29:03;;;;;;;17.30;12.38;;;18.30;99.90;;;;;;4994960;28;20500;-50
2023/05/25 00:31:31;;;;;;;13.20;11.52;;;18.30;99.90;;;;;;4994374;28;20018;-48
2023/05/25 00:33:58;;;;;;;18.23;11.40;;;18.30;99.90;;;;;;4993859;28;20496;-49
2023/05/25 00:36:24;;;;;;;16.52;11.82;;;18.30;99.90;;;;;;4975799;28;20086;-49
2023/05/25 00:38:50;;;;;;;17.80;11.57;;;18.30;99.90;;;;;;4977278;28;20147;-48
2023/05/25 00:41:19;;;;;;;22.33;12.35;;;18.20;99.90;;;;;;4994720;28;20049;-49
2023/05/25 00:43:46;;;;;;;21.23;12.18;;;18.20;99.90;;;;;;4994822;28;20061;-48
2023/05/25 00:46:14;;;;;;;20.47;13.00;;;18.20;99.90;;;;;;4991932;28;20034;-49
2023/05/25 00:48:41;;;;;;;15.00;12.50;;;18.20;99.90;;;;;;4974926;28;20265;-48
2023/05/25 00:51:07;;;;;;;14.90;11.48;;;18.20;99.90;;;;;;4984177;28;20022;-49
2023/05/25 00:53:35;;;;;;;17.25;12.57;;;18.20;99.90;;;;;;4994682;28;20620;-50
2023/05/25 00:56:14;;;;;;;17.88;12.55;;;18.20;99.90;;;;;;4994060;28;20018;-49
2023/05/25 00:58:42;;;;;;;18.13;12.95;;;18.10;99.90;;;;;;4993588;28;20038;-50
2023/05/25 01:01:12;;;;;;;15.32;11.52;;;18.10;99.90;;;;;;4993406;28;20033;-48
2023/05/25 01:03:44;;;;;;;19.23;12.75;;;18.10;99.90;;;;;;4992072;28;20033;-48
2023/05/25 01:06:13;;;;;;;18.63;13.18;;;18.10;99.90;;;;;;4992008;28;20018;-50
2023/05/25 01:08:59;;;;;;;18.20;11.82;;;18.10;99.90;;;;;;4991634;28;20477;-49
2023/05/25 01:11:30;;;;;;;14.13;11.70;;;18.10;99.90;;;;;;4977562;28;20077;-49
2023/05/25 01:13:57;;;;;;;16.70;12.30;;;18.10;99.90;;;;;;4992651;28;20030;-50
2023/05/25 01:16:24;;;;;;;;;;;18.10;99.90;;;;;;4992304;28;20036;-48
2023/05/25 01:18:51;;;;;;;18.55;13.15;;;18.10;99.90;;;;;;4992772;28;19909;-48
2023/05/25 01:21:41;;;;;;;18.73;12.80;;;18.10;99.90;;;;;;4993476;28;20031;-50
2023/05/25 01:24:31;;;;;;;17.63;13.73;;;18.10;99.90;;;;;;4993568;28;20030;-48
2023/05/25 01:27:21;;;;;;;20.48;13.18;;;18.00;99.90;;;;;;4993476;28;20034;-49
2023/05/25 01:29:47;;;;;;;18.55;13.13;;;18.00;99.90;;;;;;4985820;28;20043;-48
2023/05/25 01:32:14;;;;;;;17.98;12.65;;;18.00;99.90;;;;;;4992994;28;20121;-49
2023/05/25 01:34:42;;;;;;;18.25;12.02;;;17.90;99.90;;;;;;4993292;28;20030;-48
2023/05/25 01:37:08;;;;;;;22.23;14.40;;;17.90;99.90;;;;;;4992903;28;20022;-48
2023/05/25 01:39:33;;;;;;;20.05;14.15;;;17.80;99.90;;;;;;4993148;28;20023;-50
2023/05/25 01:42:00;;;;;;;19.67;13.30;;;17.80;99.90;;;;;;4976007;28;20030;-48
2023/05/25 01:44:27;;;;;;;21.05;14.32;;;17.80;99.90;;;;;;4992815;28;20028;-48
2023/05/25 01:47:02;;;;;;;18.15;14.27;;;17.70;99.90;;;;;;4992933;28;20031;-49
2023/05/25 01:49:36;;;;;;;24.30;14.95;;;17.70;99.90;;;;;;4978908;28;20019;-48
2023/05/25 01:52:20;;;;;;;20.25;14.23;;;17.80;99.90;;;;;;4993211;28;20514;-52
2023/05/25 01:55:14;;;;;;;17.75;14.73;;;17.80;99.90;;;;;;4975686;28;20029;-49
2023/05/25 01:57:42;;;;;;;19.98;14.43;;;17.80;99.90;;;;;;4981887;28;20485;-50
2023/05/25 02:00:12;;;;;;;19.75;14.63;;;17.80;99.90;;;;;;4981378;28;20612;-48
2023/05/25 02:02:40;;;;;;;19.88;13.93;;;17.80;99.90;;;;;;4956595;28;20035;-49
2023/05/25 02:05:07;;;;;;;16.52;14.13;;;17.80;99.90;;;;;;4992841;28;20493;-49
2023/05/25 02:07:33;;;;;;;;;;;17.90;99.90;;;;;;4993390;28;20035;-48
2023/05/25 02:09:58;;;;;;;22.70;15.25;;;17.80;99.90;;;;;;4993004;28;19910;-49
2023/05/25 02:12:25;;;;;;;19.77;15.13;;;17.80;99.90;;;;;;4993200;28;20033;-48
2023/05/25 02:14:50;;;;;;;20.15;14.98;;;17.90;99.90;;;;;;4993024;28;20146;-49
2023/05/25 02:17:18;;;;;;;24.63;14.90;;;17.80;99.90;;;;;;4973842;28;20046;-49
2023/05/25 02:19:47;;;;;;;22.08;15.85;;;17.80;99.90;;;;;;4973523;28;20062;-49
2023/05/25 02:22:13;;;;;;;19.05;15.90;;;17.80;99.90;;;;;;4973375;28;20433;-48
2023/05/25 02:24:39;;;;;;;26.70;15.98;;;17.80;99.90;;;;;;4973862;28;20057;-49
2023/05/25 02:27:05;;;;;;;18.85;13.60;;;17.80;99.90;;;;;;4973299;28;20446;-48
2023/05/25 02:29:31;;;;;;;15.70;13.67;;;17.70;99.90;;;;;;4972599;28;20501;-48
2023/05/25 02:31:57;;;;;;;18.95;14.45;;;17.70;99.90;;;;;;4973397;28;20023;-49
2023/05/25 02:34:23;;;;;;;16.10;14.40;;;17.60;99.90;;;;;;4973259;28;20128;-48
2023/05/25 02:36:49;;;;;;;18.00;13.88;;;17.60;99.90;;;;;;4987122;28;20461;-49
2023/05/25 02:39:15;;;;;;;19.23;14.37;;;17.60;99.90;;;;;;4991806;28;20489;-49
2023/05/25 02:41:41;;;;;;;18.73;13.95;;;17.60;99.90;;;;;;4992067;28;20026;-49
2023/05/25 02:44:07;;;;;;;17.45;14.23;;;17.60;99.90;;;;;;4992096;28;20033;-49
2023/05/25 02:46:33;;;;;;;18.00;15.23;;;17.70;99.90;;;;;;4992301;28;20023;-49
2023/05/25 02:48:59;;;;;;;20.23;15.98;;;17.70;99.90;;;;;;4991865;28;20038;-49
2023/05/25 02:51:25;;;;;;;20.70;15.73;;;17.70;99.90;;;;;;4991398;28;20166;-49
2023/05/25 02:53:51;;;;;;;19.00;14.80;;;17.60;99.90;;;;;;4991973;28;20109;-50
2023/05/25 02:56:17;;;;;;;21.33;13.77;;;17.70;99.90;;;;;;4991902;28;20556;-48
2023/05/25 02:58:43;;;;;;;19.05;15.50;;;17.60;99.90;;;;;;4991565;28;20117;-49
2023/05/25 03:01:09;;;;;;;18.98;14.75;;;17.50;99.90;;;;;;4982880;28;20039;-49
2023/05/25 03:03:37;;;;;;;20.77;16.27;;;17.50;99.90;;;;;;4992023;28;20015;-48
2023/05/25 03:06:03;;;;;;;29.52;19.55;;;17.40;99.90;;;;;;4991630;28;20049;-51
2023/05/25 03:08:30;;;;;;;23.53;18.93;;;17.40;99.90;;;;;;4974222;28;20034;-51
2023/05/25 03:10:55;;;;;;;22.60;15.67;;;17.40;99.90;;;;;;4992069;28;20540;-49
2023/05/25 03:13:21;;;;;;;20.30;15.57;;;17.40;99.90;;;;;;4983741;28;20443;-50
2023/05/25 03:15:47;;;;;;;20.65;14.38;;;17.30;99.90;;;;;;4991116;28;20033;-49
2023/05/25 03:18:12;;;;;;;24.60;14.25;;;17.30;99.90;;;;;;4984457;28;20039;-49
2023/05/25 03:20:40;;;;;;;16.80;14.55;;;17.30;99.90;;;;;;4972574;28;20493;-48
2023/05/25 03:23:05;;;;;;;23.25;15.73;;;17.20;99.90;;;;;;4983756;28;20037;-50
2023/05/25 03:25:31;;;;;;;22.65;15.63;;;17.20;99.90;;;;;;4991671;28;20097;-48
2023/05/25 03:27:57;;;;;;;21.27;15.02;;;17.20;99.90;;;;;;4991795;28;20437;-51
2023/05/25 03:30:23;;;;;;;19.40;14.60;;;17.20;99.90;;;;;;4991739;28;20072;-48
2023/05/25 03:32:48;;;;;;;20.73;14.43;;;17.20;99.90;;;;;;4991826;28;20049;-48
2023/05/25 03:35:14;;;;;;;19.67;14.35;;;17.10;99.90;;;;;;4991207;28;20523;-50
2023/05/25 03:37:40;;;;;;;20.77;14.18;;;17.20;99.90;;;;;;4991324;28;20034;-49
2023/05/25 03:40:08;;;;;;;21.98;14.40;;;17.20;99.90;;;;;;4991972;28;20037;-49
2023/05/25 03:42:34;;;;;;;24.58;15.07;;;17.20;99.90;;;;;;4994783;28;20030;-50
2023/05/25 03:45:00;;;;;;;19.92;14.45;;;17.20;99.90;;;;;;4995509;28;20069;-51
2023/05/25 03:47:25;;;;;;;18.23;14.55;;;17.20;99.90;;;;;;4995081;28;20061;-50
2023/05/25 03:49:51;;;;;;;18.77;14.45;;;17.30;99.90;;;;;;4994998;28;20447;-50
2023/05/25 03:52:17;;;;;;;18.13;15.07;;;17.30;99.90;;;;;;4995192;28;20026;-49
2023/05/25 03:54:42;;;;;;;17.85;14.15;;;17.40;99.90;;;;;;4978240;28;20157;-48
2023/05/25 03:57:08;;;;;;;18.55;13.70;;;17.40;99.90;;;;;;4995417;28;20117;-49
2023/05/25 03:59:34;;;;;;;25.08;14.63;;;17.50;99.90;;;;;;4995520;28;20366;-51
2023/05/25 04:02:00;;;;;;;21.05;14.38;;;17.50;99.90;;;;;;4995154;28;20038;-48
2023/05/25 04:04:26;;;;;;;23.25;14.93;;;17.60;99.90;;;;;;4995417;28;20030;-50
2023/05/25 04:06:52;;;;;;;16.85;15.05;;;17.60;99.90;;;;;;4995423;28;20157;-53
2023/05/25 04:09:18;;;;;;;17.90;14.73;;;17.60;99.90;;;;;;4995244;28;20094;-49
2023/05/25 04:11:44;;;;;;;15.45;13.85;;;17.70;99.90;;;;;;4995377;28;20038;-49
2023/05/25 04:14:10;;;;;;;18.55;11.77;;;17.70;99.90;;;;;;4995206;28;20023;-49
2023/05/25 04:16:36;;;;;;;15.27;13.68;;;17.70;99.90;;;;;;4994532;28;20030;-49
2023/05/25 04:19:02;;;;;;;15.00;13.32;;;17.80;99.90;;;;;;4994376;28;20485;-49
2023/05/25 04:21:27;;;;;;;18.92;12.00;;;17.80;99.90;;;;;;4995139;28;20030;-49
2023/05/25 04:23:53;;;;;;;13.98;12.27;;;17.80;99.90;;;;;;4995128;28;20540;-49
2023/05/25 04:26:19;;;;;;;16.67;12.77;;;17.90;99.90;;;;;;4977744;28;20022;-49
2023/05/25 04:28:44;;;;;;;22.38;14.27;;;17.90;99.90;;;;;;4994987;28;20389;-50
2023/05/25 04:31:12;;;;;;;19.58;12.82;;;17.90;99.90;;;;;;4995034;28;20026;-48
2023/05/25 04:33:38;;;;;;;12.82;11.00;;;18.00;99.90;;;;;;4994873;28;20018;-50
2023/05/25 04:36:04;;;;;;;16.20;12.23;;;18.00;99.90;;;;;;4994814;28;20034;-49
2023/05/25 04:38:32;;;;;;;15.23;12.90;;;18.00;99.90;;;;;;4977274;28;20061;-49
2023/05/25 04:41:00;;;;;;;14.20;11.90;;;18.10;99.90;;;;;;4994821;28;20053;-48
2023/05/25 04:43:28;;;;;;;15.30;11.40;;;18.10;99.90;;;;;;4994844;28;20026;-48
2023/05/25 04:45:54;;;;;;;13.82;10.98;;;18.20;99.90;;;;;;4994589;28;20481;-48
2023/05/25 04:48:20;;;;;;;14.82;10.77;;;18.20;99.90;;;;;;4994515;28;20023;-49
2023/05/25 04:50:46;;;;;;;11.93;10.52;;;18.20;99.90;;;;;;4994442;28;20041;-49
2023/05/25 04:53:11;;;;;;;10.88;9.73;;;18.30;99.90;;;;;;4993735;28;20149;-48
2023/05/25 04:55:38;;;;;;;16.35;10.70;;;18.30;99.90;;;;;;4994543;28;20397;-49
2023/05/25 04:58:04;;;;;;;14.82;10.65;;;18.30;99.90;;;;;;4976839;28;20022;-49
2023/05/25 05:00:30;;;;;;;15.50;11.45;;;18.30;99.90;;;;;;4994392;28;20037;-49
2023/05/25 05:02:57;;;;;;;14.33;11.17;;;18.30;99.90;;;;;;4976950;28;20077;-50
2023/05/25 05:05:23;;;;;;;12.20;9.88;;;18.30;99.90;;;;;;4994264;28;20462;-48
2023/05/25 05:07:49;;;;;;;14.02;10.68;;;18.30;99.90;;;;;;4994126;28;20030;-49
2023/05/25 05:10:15;;;;;;;13.27;10.32;;;18.40;99.90;;;;;;4994310;28;20033;-49
2023/05/25 05:12:40;;;;;;;12.30;9.32;;;18.40;99.90;;;;;;4994314;28;20424;-48
2023/05/25 05:15:06;;;;;;;13.00;10.50;;;18.50;99.90;;;;;;4994070;28;20540;-49
2023/05/25 05:17:32;;;;;;;10.05;9.05;;;18.60;99.90;;;;;;4993991;28;20508;-48
2023/05/25 05:19:58;;;;;;;10.87;8.73;;;18.60;99.90;;;;;;4994245;28;20034;-50
2023/05/25 05:22:24;;;;;;;16.00;8.88;;;18.60;99.90;;;;;;4976711;28;20484;-50
2023/05/25 05:24:50;;;;;;;13.63;8.65;;;18.60;99.90;;;;;;4993958;28;20485;-49
2023/05/25 05:27:16;;;;;;;15.63;8.05;;;18.60;99.90;;;;;;4993732;28;20027;-45
2023/05/25 05:29:41;;;;;;;10.55;8.05;;;18.70;99.90;;;;;;4993888;28;20030;-45
2023/05/25 05:32:07;;;;;;;10.02;7.35;;;18.80;99.90;;;;;;4993822;28;20477;-46
2023/05/25 05:34:35;;;;;;;12.65;7.07;;;18.80;99.90;;;;;;4992407;28;20050;-47
2023/05/25 05:37:00;;;;;;;7.68;6.90;;;18.90;99.90;;;;;;5000021;28;20129;-47
2023/05/25 05:39:27;;;;;;;7.97;6.38;;;18.90;99.90;;;;;;4993243;28;20026;-48
2023/05/25 05:41:53;;;;;;;15.80;6.97;;;18.90;99.90;;;;;;4993706;28;20030;-47
2023/05/25 05:44:22;;;;;;;7.40;6.70;;;19.00;99.90;;;;;;5045268;23;20311;-48
2023/05/25 05:46:48;;;;;;;8.65;6.75;;;19.10;99.90;;;;;;5005137;28;20030;-48
2023/05/25 05:49:14;;;;;;;10.02;7.22;;;19.10;99.90;;;;;;5014101;28;20028;-50
2023/05/25 05:51:40;;;;;;;10.50;6.32;;;19.10;99.90;;;;;;5013966;28;20413;-47
2023/05/25 05:54:05;;;;;;;8.32;6.90;;;19.10;99.90;;;;;;5013851;28;20107;-48
2023/05/25 05:56:31;;;;;;;7.38;6.63;;;19.10;99.90;;;;;;5013735;28;20018;-51
2023/05/25 05:58:57;;;;;;;12.80;7.15;;;19.10;99.90;;;;;;5013221;28;20030;-49
2023/05/25 06:01:23;;;;;;;7.95;6.93;;;19.10;99.90;;;;;;5013054;28;20065;-50
2023/05/25 06:03:49;;;;;;;11.55;6.72;;;19.10;99.90;;;;;;5012813;28;20373;-50
2023/05/25 06:06:15;;;;;;;10.18;6.53;;;19.10;99.90;;;;;;4994931;28;20386;-50
2023/05/25 06:08:41;;;;;;;7.15;5.95;;;19.10;99.90;;;;;;4993170;28;20093;-50
2023/05/25 06:11:07;;;;;;;10.05;7.65;;;19.20;99.90;;;;;;4993707;28;20362;-50
2023/05/25 06:13:33;;;;;;;8.43;7.28;;;19.20;99.90;;;;;;4993093;28;20026;-47
2023/05/25 06:15:59;;;;;;;8.95;6.47;;;19.20;99.90;;;;;;4993248;28;20054;-47
2023/05/25 06:18:24;;;;;;;8.90;7.05;;;19.30;99.90;;;;;;4991898;28;20022;-49
2023/05/25 06:20:50;;;;;;;8.57;7.13;;;19.30;99.90;;;;;;4991619;28;20046;-46
2023/05/25 06:23:17;;;;;;;8.65;7.35;;;19.50;99.90;;;;;;4992993;28;20033;-48
2023/05/25 06:36:06;;;;;;;8.63;7.45;;;19.80;99.90;;;;;;5123616;23;20049;-54
2023/05/25 06:38:32;;;;;;;;;;;19.80;99.90;;;;;;5031864;28;20018;-56
2023/05/25 06:41:02;;;;;;;8.85;7.95;;;19.80;99.90;;;;;;5032339;28;19909;-50
2023/05/25 06:43:28;;;;;;;9.55;8.55;;;19.70;99.90;;;;;;5032002;28;20036;-55
2023/05/25 06:45:53;;;;;;;8.02;7.15;;;19.80;99.90;;;;;;5032316;28;20025;-50
2023/05/25 06:48:19;;;;;;;12.02;7.72;;;19.80;99.90;;;;;;5026833;23;20029;-49
2023/05/25 06:50:45;;;;;;;11.43;7.40;;;19.90;99.90;;;;;;5007403;28;20030;-49
2023/05/25 06:53:11;;;;;;;9.68;7.13;;;20.00;99.90;;;;;;5012089;28;20048;-49
2023/05/25 06:55:37;;;;;;;7.80;6.73;;;20.20;99.90;;;;;;5012107;28;20084;-49
2023/05/25 06:58:03;;;;;;;8.93;6.18;;;20.40;99.90;;;;;;5010684;28;20030;-49
2023/05/25 07:00:28;;;;;;;7.40;5.97;;;20.60;99.90;;;;;;5012168;28;20030;-49
2023/05/25 07:02:54;;;;;;;10.18;6.38;;;20.70;99.90;;;;;;5012122;28;20018;-49
2023/05/25 07:05:20;;;;;;;11.13;6.50;;;20.70;99.90;;;;;;5010784;28;20052;-53
2023/05/25 07:07:46;;;;;;;8.30;6.13;;;20.80;99.90;;;;;;4996098;28;20022;-51
2023/05/25 07:10:12;;;;;;;6.72;6.03;;;21.00;99.90;;;;;;4992338;28;20053;-54
2023/05/25 07:12:37;;;;;;;8.98;6.50;;;21.10;99.70;;;;;;4992413;28;20026;-54
2023/05/25 07:15:04;;;;;;;7.53;6.65;;;21.20;99.30;;;;;;4992272;28;20399;-53
2023/05/25 07:17:30;;;;;;;8.77;6.63;;;21.40;99.20;;;;;;4990571;28;20037;-53
2023/05/25 07:19:56;;;;;;;10.93;6.17;;;21.50;99.00;;;;;;4992025;28;20037;-51
2023/05/25 07:22:22;;;;;;;9.02;6.35;;;21.60;98.30;;;;;;4992005;28;20027;-55
2023/05/25 07:24:48;;;;;;;11.85;6.13;;;21.70;97.80;;;;;;4992311;28;20022;-54
2023/05/25 07:27:15;;;;;;;7.78;6.63;;;21.80;97.30;;;;;;4992089;28;20101;-51
2023/05/25 07:29:41;;;;;;;11.32;7.15;;;21.80;96.70;;;;;;4992190;28;20027;-51
2023/05/25 07:32:07;;;;;;;8.55;7.38;;;21.90;96.80;;;;;;4992169;28;20384;-53
2023/05/25 07:34:33;;;;;;;8.20;6.80;;;21.90;96.40;;;;;;4992085;28;20036;-53
2023/05/25 07:36:59;;;;;;;7.70;6.32;;;21.90;96.20;;;;;;4991985;28;20085;-54
2023/05/25 07:39:24;;;;;;;7.37;6.63;;;21.90;95.70;;;;;;4992119;28;20444;-54
2023/05/25 07:41:50;;;;;;;13.23;6.73;;;22.00;95.70;;;;;;4992070;28;20029;-52
2023/05/25 07:44:16;;;;;;;12.52;7.38;;;22.10;96.00;;;;;;4996983;28;20027;-55
2023/05/25 07:46:42;;;;;;;11.53;7.50;;;22.00;95.30;;;;;;4990745;28;20076;-54
2023/05/25 07:49:14;;;;;;;8.65;7.53;;;22.10;95.20;;;;;;4991695;28;20034;-55
2023/05/25 07:51:42;;;;;;;13.82;7.50;;;22.10;94.90;;;;;;4992166;28;20374;-52
2023/05/25 07:54:08;;;;;;;9.40;6.80;;;22.00;95.20;;;;;;4991989;28;20555;-54
2023/05/25 07:56:33;;;;;;;9.82;7.35;;;22.10;96.00;;;;;;4992130;28;20026;-54
2023/05/25 07:58:59;;;;;;;8.60;7.30;;;22.20;95.90;;;;;;4991829;28;20384;-54
2023/05/25 08:01:25;;;;;;;14.20;7.20;;;22.20;95.30;;;;;;4991956;28;20058;-51
2023/05/25 08:03:51;;;;;;;9.70;7.33;;;22.20;94.80;;;;;;4991904;28;20030;-53
2023/05/25 08:06:17;;;;;;;9.18;7.35;;;22.20;94.50;;;;;;4991865;28;20023;-52
2023/05/25 08:08:43;;;;;;;8.70;6.83;;;22.10;95.30;;;;;;4991635;28;20027;-52
2023/05/25 08:11:10;;;;;;;9.63;6.40;;;22.20;95.50;;;;;;4991873;28;20022;-51
2023/05/25 08:13:36;;;;;;;8.18;6.43;;;22.40;94.90;;;;;;4991949;28;20037;-50
2023/05/25 08:16:02;;;;;;;8.33;7.40;;;22.50;93.50;;;;;;4991827;28;20041;-51
2023/05/25 08:18:27;;;;;;;6.30;5.70;;;22.60;93.70;;;;;;4991590;28;20030;-52
2023/05/25 08:20:53;;;;;;;7.17;6.47;;;22.80;91.60;;;;;;4991513;28;20389;-52
2023/05/25 08:23:19;;;;;;;10.85;6.25;;;22.90;91.70;;;;;;4991412;28;20026;-52
2023/05/25 08:25:45;;;;;;;7.22;6.47;;;22.90;92.00;;;;;;4991652;28;20021;-53
2023/05/25 08:28:10;;;;;;;7.13;6.43;;;23.10;91.80;;;;;;4990037;28;20030;-54
2023/05/25 08:30:36;;;;;;;9.82;6.25;;;23.20;91.20;;;;;;4995127;28;20113;-53
2023/05/25 08:33:02;;;;;;;7.07;6.20;;;23.20;90.80;;;;;;4994975;28;20114;-52
2023/05/25 08:35:28;;;;;;;9.50;7.00;;;23.30;91.90;;;;;;4994921;28;20033;-51
2023/05/25 08:37:53;;;;;;;7.00;6.33;;;23.20;91.30;;;;;;4994800;28;20022;-54
2023/05/25 08:40:23;;;;;;;8.90;7.45;;;23.20;91.30;;;;;;4994900;28;20391;-53
2023/05/25 08:42:48;;;;;;;8.75;7.00;;;23.10;90.30;;;;;;4994923;28;20022;-52
2023/05/25 08:45:14;;;;;;;7.47;5.90;;;23.10;90.70;;;;;;4994710;28;20476;-51
2023/05/25 08:47:42;;;;;;;8.63;6.00;;;23.20;90.80;;;;;;4995106;28;20036;-51
2023/05/25 08:50:09;;;;;;;9.95;7.03;;;23.20;90.20;;;;;;4994493;28;20444;-52
2023/05/25 08:52:35;;;;;;;;;;;23.20;89.90;;;;;;4995149;28;20059;-51
2023/05/25 08:55:04;;;;;;;7.43;5.80;;;23.40;90.00;;;;;;4994678;28;20407;-51
2023/05/25 08:57:54;;;;;;;6.95;5.97;;;23.50;87.50;;;;;;4994464;28;20026;-52
2023/05/25 09:00:27;;;;;;;7.53;6.32;;;23.70;83.50;;;;;;4994459;28;20030;-52
2023/05/25 09:03:09;;;;;;;10.23;6.28;;;23.70;83.50;;;;;;4994599;28;20061;-53
2023/05/25 09:05:35;;;;;;;6.82;5.90;;;23.70;82.60;;;;;;4994495;28;20504;-51
2023/05/25 09:08:05;;;;;;;8.80;6.53;;;23.70;83.30;;;;;;4994095;28;20026;-55
2023/05/25 09:10:33;;;;;;;7.35;5.65;;;23.80;85.50;;;;;;4994285;28;20488;-50
2023/05/25 09:13:01;;;;;;;8.90;7.03;;;23.90;84.40;;;;;;4994324;28;20515;-51
2023/05/25 09:15:27;;;;;;;10.60;6.85;;;24.00;83.30;;;;;;4994296;28;20101;-52
2023/05/25 09:17:52;;;;;;;9.23;5.50;;;24.20;81.80;;;;;;4994242;28;20118;-51
2023/05/25 09:20:19;;;;;;;8.07;6.13;;;24.20;81.70;;;;;;4994128;28;20033;-51
2023/05/25 09:22:46;;;;;;;8.98;6.50;;;24.30;79.60;;;;;;4994184;28;20030;-50
2023/05/25 09:25:20;;;;;;;6.65;5.95;;;24.30;79.50;;;;;;4993900;28;20022;-53
2023/05/25 09:27:46;;;;;;;9.25;6.57;;;24.30;79.70;;;;;;4994153;28;20022;-53
2023/05/25 09:30:12;;;;;;;7.17;6.07;;;24.30;80.50;;;;;;4994001;28;20405;-52
2023/05/25 09:32:38;;;;;;;9.63;6.40;;;24.30;79.70;;;;;;4993998;28;20026;-51
2023/05/25 09:35:08;;;;;;;8.82;6.45;;;24.30;79.60;;;;;;4993888;28;20029;-50
2023/05/25 09:37:34;;;;;;;9.27;6.18;;;24.50;79.10;;;;;;4992409;28;20554;-52
2023/05/25 09:40:00;;;;;;;7.53;5.78;;;24.50;78.60;;;;;;4993202;28;20462;-51
2023/05/25 09:42:26;;;;;;;10.10;6.30;;;24.50;79.20;;;;;;4993619;28;20102;-53
2023/05/25 09:44:51;;;;;;;7.50;6.53;;;24.50;78.40;;;;;;4993745;28;20444;-53
2023/05/25 09:47:17;;;;;;;14.43;7.07;;;24.50;78.00;;;;;;4993538;28;20057;-54
2023/05/25 09:49:46;;;;;;;9.83;6.50;;;24.40;78.10;;;;;;4993457;28;20030;-58
2023/05/25 09:52:12;;;;;;;10.23;7.03;;;24.40;78.70;;;;;;4993689;28;20030;-54
2023/05/25 09:54:38;;;;;;;62.47;13.50;;;24.40;78.60;;;;;;4993584;28;20030;-52
2023/05/25 09:57:04;;;;;;;14.87;6.83;;;24.60;77.60;;;;;;4993402;28;20026;-57
2023/05/25 09:59:31;;;;;;;10.30;6.65;;;24.60;76.80;;;;;;4993456;28;20026;-53
2023/05/25 10:01:57;;;;;;;12.18;7.38;;;24.60;77.60;;;;;;4993324;28;20026;-58
2023/05/25 10:04:23;;;;;;;;;;;24.40;77.40;;;;;;4993858;28;20022;-54
2023/05/25 10:06:50;;;;;;;112.88;17.90;;;24.20;77.50;;;;;;4993392;28;19913;-54
2023/05/25 10:09:18;;;;;;;12.43;7.35;;;24.20;80.50;;;;;;4993099;28;20377;-53
2023/05/25 10:11:45;;;;;;;7.72;6.70;;;24.40;78.90;;;;;;4993134;28;20038;-50
2023/05/25 10:14:14;;;;;;;8.65;6.60;;;24.50;79.00;;;;;;4993078;28;20030;-54
2023/05/25 10:16:45;;;;;;;8.57;6.97;;;24.70;77.50;;;;;;4992816;28;20041;-52
2023/05/25 10:19:20;;;;;;;8.75;6.40;;;24.80;77.00;;;;;;4989385;28;20041;-55
2023/05/25 10:21:52;;;;;;;8.63;5.53;;;25.00;77.20;;;;;;4990465;28;20037;-53
2023/05/25 10:24:37;;;;;;;8.10;6.68;;;25.10;73.20;;;;;;4991815;28;20029;-54
2023/05/25 10:27:05;;;;;;;10.00;6.03;;;25.30;74.00;;;;;;4992664;28;20033;-53
2023/05/25 10:29:33;;;;;;;5.82;5.20;;;25.30;72.80;;;;;;4992943;28;20501;-52
2023/05/25 10:31:59;;;;;;;11.18;5.47;;;25.30;71.10;;;;;;4992495;28;20106;-55
2023/05/25 10:34:26;;;;;;;11.93;5.53;;;25.40;71.70;;;;;;4992875;28;20026;-54
2023/05/25 10:36:55;;;;;;;5.88;5.10;;;25.50;71.90;;;;;;4990716;28;20030;-54
2023/05/25 10:39:23;;;;;;;5.95;4.90;;;25.70;70.80;;;;;;4990030;28;20037;-55
2023/05/25 10:41:50;;;;;;;6.80;5.60;;;25.60;69.70;;;;;;4990769;28;20022;-58
2023/05/25 10:44:17;;;;;;;6.88;5.18;;;25.50;70.90;;;;;;4991986;28;20029;-55
2023/05/25 10:46:44;;;;;;;7.65;4.38;;;25.70;71.30;;;;;;4991010;28;20034;-54
2023/05/25 10:49:10;;;;;;;6.90;4.97;;;25.80;68.00;;;;;;4991478;28;20027;-55
2023/05/25 10:51:59;;;;;;;10.48;5.53;;;25.80;68.90;;;;;;4991581;28;20035;-55
2023/05/25 10:54:32;;;;;;;5.60;4.72;;;25.80;69.80;;;;;;4983415;28;20038;-54
2023/05/25 10:57:09;;;;;;;6.55;5.13;;;25.70;68.80;;;;;;4991226;28;20041;-54
2023/05/25 10:59:39;;;;;;;;;;;25.80;68.60;;;;;;4992111;28;20057;-54
2023/05/25 11:02:05;;;;;;;5.88;4.35;;;25.90;69.90;;;;;;4991435;28;19914;-52
2023/05/25 11:04:36;;;;;;;8.45;4.32;;;26.00;69.30;;;;;;4992154;28;20081;-55
2023/05/25 11:07:01;;;;;;;4.97;4.07;;;26.20;68.90;;;;;;4991582;28;20054;-57
2023/05/25 11:09:30;;;;;;;9.07;6.50;;;26.20;65.60;;;;;;4991511;28;20065;-54
2023/05/25 11:11:58;;;;;;;6.22;3.88;;;26.30;66.40;;;;;;4990741;28;20065;-57
2023/05/25 11:14:29;;;;;;;4.50;3.50;;;26.30;66.10;;;;;;4991208;28;20030;-53
2023/05/25 11:17:10;;;;;;;5.30;3.67;;;26.40;64.40;;;;;;4991993;28;20080;-52
2023/05/25 11:19:49;;;;;;;5.50;3.20;;;26.50;63.10;;;;;;4990714;28;20018;-57
2023/05/25 11:22:34;;;;;;;7.78;3.40;;;26.70;63.70;;;;;;4990669;28;20034;-52
2023/05/25 11:25:02;;;;;;;5.88;3.22;;;26.80;62.00;;;;;;4991412;28;20440;-54
2023/05/25 11:27:30;;;;;;;5.03;3.28;;;26.90;63.90;;;;;;4991419;28;20104;-52
2023/05/25 11:29:58;;;;;;;4.35;2.95;;;26.90;63.20;;;;;;4991714;28;20022;-54
2023/05/25 11:32:24;;;;;;;5.05;3.38;;;26.90;62.20;;;;;;4991768;28;20439;-55
2023/05/25 11:34:56;;;;;;;5.40;3.15;;;26.80;61.60;;;;;;4991882;28;20026;-54
2023/05/25 11:37:27;;;;;;;3.97;3.58;;;26.90;62.50;;;;;;4991525;28;20033;-57
2023/05/25 11:39:54;;;;;;;6.68;3.65;;;26.90;62.70;;;;;;4991595;28;20027;-52
2023/05/25 11:42:21;;;;;;;4.75;3.17;;;26.90;62.60;;;;;;4990540;28;20037;-52
2023/05/25 11:44:47;;;;;;;7.55;3.22;;;26.90;63.20;;;;;;4990359;28;20505;-56
2023/05/25 11:47:17;;;;;;;4.33;3.07;;;27.00;64.10;;;;;;4991536;28;20077;-57
2023/05/25 11:49:48;;;;;;;4.20;2.80;;;27.10;63.20;;;;;;4976258;28;20027;-50
2023/05/25 11:52:15;;;;;;;5.15;4.03;;;27.10;63.00;;;;;;4991873;28;20023;-50
2023/05/25 11:54:43;;;;;;;6.57;3.50;;;27.20;61.80;;;;;;4990423;28;20045;-51
2023/05/25 11:57:16;;;;;;;7.68;3.47;;;27.30;62.30;;;;;;4991443;28;20027;-51
2023/05/25 11:59:56;;;;;;;6.70;3.53;;;27.40;64.20;;;;;;4991481;28;20033;-50
2023/05/25 12:02:22;;;;;;;6.07;3.13;;;27.60;62.30;;;;;;4993167;28;20034;-50
2023/05/25 12:05:00;;;;;;;6.63;3.30;;;27.60;61.00;;;;;;4995462;28;20061;-57
2023/05/25 12:07:27;;;;;;;;;;;27.70;60.40;;;;;;4995351;28;20026;-53
2023/05/25 12:10:12;;;;;;;8.07;3.50;;;27.60;61.30;;;;;;4993895;28;19909;-59
2023/05/25 12:12:40;;;;;;;5.78;3.08;;;27.80;60.70;;;;;;4995263;28;20157;-56
2023/05/25 12:15:08;;;;;;;3.75;3.05;;;28.00;59.70;;;;;;4994928;28;20053;-54
2023/05/25 12:17:35;;;;;;;3.85;3.00;;;28.30;58.80;;;;;;4994927;28;20026;-56
2023/05/25 12:20:01;;;;;;;9.20;3.92;;;28.20;57.50;;;;;;4994930;28;20108;-56
2023/05/25 12:22:27;;;;;;;7.57;3.15;;;28.10;58.80;;;;;;4994030;28;20057;-55
2023/05/25 12:24:52;;;;;;;6.17;3.10;;;28.10;58.30;;;;;;4994233;28;20476;-52
2023/05/25 12:27:19;;;;;;;3.93;2.67;;;28.20;58.40;;;;;;4994392;28;20037;-53
2023/05/25 12:29:48;;;;;;;5.78;3.70;;;28.30;57.50;;;;;;4994798;28;20026;-55
2023/05/25 12:32:15;;;;;;;6.60;3.20;;;28.20;59.20;;;;;;4994178;28;20102;-53
2023/05/25 12:34:40;;;;;;;7.55;3.75;;;28.20;59.50;;;;;;4994588;28;20058;-52
2023/05/25 12:37:20;;;;;;;4.67;3.43;;;28.30;59.60;;;;;;4994630;28;20062;-52
2023/05/25 12:39:47;;;;;;;3.25;2.75;;;28.40;57.20;;;;;;4994805;28;20515;-54
2023/05/25 12:42:16;;;;;;;;;;;28.40;58.60;;;;;;4995062;28;20034;-54
2023/05/25 12:44:45;;;;;;;5.20;3.70;;;28.50;60.20;;;;;;4993109;28;19941;-56
2023/05/25 12:47:18;;;;;;;6.28;3.42;;;28.70;58.40;;;;;;4994266;28;20110;-57
2023/05/25 12:49:50;;;;;;;4.70;3.53;;;28.90;57.80;;;;;;5037652;23;20467;-59
2023/05/25 12:52:35;;;;;;;4.57;3.25;;;28.90;57.90;;;;;;5012753;28;20088;-59